createdAt,value
2023-02-13T05:06:37.378Z,29.00
2023-02-13T06:08:27.136Z,21.33
2023-02-13T06:14:29.403Z,38.67
2023-02-13T06:20:31.602Z,35.67
2023-02-13T06:26:34.987Z,34.00
2023-02-13T06:32:38.716Z,18.00
2023-02-13T06:38:41.740Z,42.00
2023-02-13T06:44:43.803Z,27.00
2023-02-13T06:50:47.208Z,29.50
2023-02-13T06:56:49.335Z,31.50
2023-02-13T07:02:51.477Z,28.25
2023-02-13T07:08:56.330Z,28.00
2023-02-13T07:14:59.661Z,28.00
2023-02-13T07:21:01.782Z,30.50
2023-02-13T07:27:05.671Z,25.00
2023-02-13T07:33:10.025Z,30.75
2023-02-13T07:39:15.686Z,29.25
2023-02-13T07:45:18.566Z,36.25
2023-02-13T07:51:20.988Z,28.50
2023-02-13T07:57:24.071Z,22.75
2023-02-13T08:03:26.482Z,16.50
2023-02-13T08:09:47.087Z,47.00
2023-02-13T08:15:49.404Z,16.50
2023-02-13T08:21:52.099Z,15.50
2023-02-13T08:27:54.235Z,22.50
2023-02-13T08:33:57.604Z,19.25
2023-02-13T08:39:59.784Z,76.67
2023-02-13T08:46:01.977Z,19.75
2023-02-13T08:52:04.786Z,18.25
2023-02-13T08:58:06.849Z,15.50
2023-02-13T09:04:09.098Z,16.25
2023-02-13T09:10:14.157Z,12.00
2023-02-13T09:16:16.689Z,20.00
2023-02-13T09:22:21.294Z,72.00
2023-02-13T09:28:23.788Z,26.00
2023-02-13T09:34:26.898Z,20.50
2023-02-13T09:40:39.722Z,22.75
2023-02-13T09:46:44.346Z,18.25
2023-02-13T09:52:53.823Z,19.50
2023-02-13T09:59:06.637Z,18.75
2023-02-13T10:05:37.450Z,28.50
2023-02-13T10:12:22.740Z,20.00
2023-02-13T10:18:34.505Z,26.50
2023-02-13T10:24:42.660Z,29.75
2023-02-13T10:30:56.944Z,29.33
2023-02-13T10:37:00.029Z,29.00
2023-02-13T10:43:09.190Z,32.75
2023-02-13T10:49:14.139Z,29.75
2023-02-13T10:55:29.067Z,28.75
2023-02-13T11:01:46.650Z,36.25
2023-02-13T11:07:49.439Z,31.75
2023-02-13T11:14:23.253Z,38.75
2023-02-13T11:20:31.216Z,37.25
2023-02-13T11:26:36.140Z,33.75
2023-02-13T11:32:38.576Z,31.00
2023-02-13T11:38:41.777Z,30.25
2023-02-13T11:44:51.023Z,39.00
2023-02-13T11:50:56.801Z,41.00
2023-02-13T11:57:26.495Z,41.50
2023-02-13T12:03:32.587Z,28.25
2023-02-13T12:09:39.855Z,49.50
2023-02-13T12:15:44.485Z,41.25
2023-02-13T12:21:54.789Z,41.75
2023-02-13T12:28:16.924Z,44.25
2023-02-13T12:34:25.012Z,50.75
2023-02-13T12:40:58.551Z,76.75
2023-02-13T12:47:42.935Z,56.00
2023-02-13T12:53:48.021Z,37.25
2023-02-13T13:00:18.732Z,50.50
2023-02-13T13:06:58.033Z,51.25
2023-02-13T13:13:12.835Z,46.50
2023-02-13T13:19:29.928Z,55.50
2023-02-13T13:25:38.322Z,51.50
2023-02-13T13:31:40.948Z,56.50
2023-02-13T13:37:46.571Z,47.25
2023-02-13T13:44:04.588Z,50.25
2023-02-13T13:50:19.483Z,57.50
2023-02-13T13:56:21.512Z,44.25
2023-02-13T14:02:23.855Z,51.25
2023-02-13T14:08:47.148Z,47.00
2023-02-13T14:14:49.382Z,42.50
2023-02-13T14:20:59.086Z,54.00
2023-02-13T14:27:06.313Z,56.00
2023-02-13T14:33:27.344Z,61.75
2023-02-13T14:39:42.175Z,61.75
2023-02-13T14:46:04.777Z,51.75
2023-02-13T14:52:13.899Z,51.50
2023-02-13T14:58:37.192Z,59.75
2023-02-13T15:04:47.241Z,69.25
2023-02-13T15:10:52.354Z,71.00
2023-02-13T15:16:59.655Z,65.75
2023-02-13T15:23:02.616Z,71.00
2023-02-13T15:29:25.831Z,70.50
2023-02-13T15:35:37.346Z,82.25
2023-02-13T15:41:47.534Z,79.25
2023-02-13T15:47:50.537Z,72.00
2023-02-13T15:54:04.045Z,74.00
2023-02-13T16:00:07.864Z,78.75
2023-02-13T16:06:17.079Z,78.25
2023-02-13T16:12:28.979Z,88.00
2023-02-13T16:18:32.653Z,82.00
2023-02-13T16:24:36.515Z,87.00
2023-02-13T16:30:45.219Z,87.33
2023-02-13T16:36:47.412Z,87.67
2023-02-13T16:42:49.413Z,82.67
2023-02-13T16:48:58.868Z,86.00
2023-02-13T16:55:06.461Z,91.00
2023-02-13T17:01:15.815Z,88.67
2023-02-13T17:07:22.081Z,88.33
2023-02-13T17:13:25.393Z,93.00
2023-02-13T17:19:31.181Z,89.33
2023-02-13T17:25:39.789Z,87.67
2023-02-13T17:31:44.286Z,91.33
2023-02-13T17:37:46.456Z,93.33
2023-02-13T17:43:48.653Z,98.00
2023-02-13T17:49:59.141Z,95.67
2023-02-13T17:56:07.008Z,101.67
2023-02-13T18:02:21.692Z,99.00
2023-02-13T18:08:24.778Z,98.67
2023-02-13T18:14:31.136Z,99.33
2023-02-13T18:20:34.796Z,102.67
2023-02-13T18:26:37.260Z,102.33
2023-02-13T18:32:39.412Z,108.00
2023-02-13T18:38:42.952Z,106.67
2023-02-13T18:44:44.995Z,108.00
2023-02-13T18:50:48.257Z,103.33
2023-02-13T18:56:50.382Z,106.67
2023-02-13T19:02:53.326Z,107.33
2023-02-13T19:08:56.378Z,100.00
2023-02-13T19:14:58.414Z,104.33
2023-02-13T19:21:02.350Z,108.67
2023-02-13T19:27:05.957Z,111.00
2023-02-13T19:33:08.176Z,106.50
2023-02-13T19:39:12.589Z,116.33
2023-02-13T19:45:14.836Z,107.00
2023-02-13T19:51:19.886Z,109.67
2023-02-13T19:57:22.119Z,112.67
2023-02-13T20:03:24.205Z,111.50
2023-02-13T20:09:27.445Z,111.00
2023-02-13T20:15:32.057Z,109.67
2023-02-13T20:21:35.481Z,105.00
2023-02-13T20:27:42.412Z,106.00
2023-02-13T20:33:45.906Z,110.33
2023-02-13T20:39:48.183Z,109.00
2023-02-13T20:45:51.299Z,114.00
2023-02-13T20:51:53.768Z,111.33
2023-02-13T20:57:56.009Z,109.00
2023-02-13T21:04:00.070Z,105.00
2023-02-13T21:10:02.189Z,105.00
2023-02-13T21:16:13.945Z,111.67
2023-02-13T21:22:16.088Z,110.67
2023-02-13T21:28:21.234Z,109.00
2023-02-13T21:34:23.984Z,109.67
2023-02-13T21:40:26.161Z,105.67
2023-02-13T21:46:30.367Z,101.33
2023-02-13T21:52:32.428Z,103.67
2023-02-13T21:58:36.175Z,108.67
2023-02-13T22:04:38.312Z,107.33
2023-02-13T22:10:40.524Z,112.33
2023-02-13T22:16:43.996Z,105.33
2023-02-13T22:22:46.266Z,105.33
2023-02-13T22:28:48.588Z,103.00
2023-02-13T22:34:52.085Z,102.00
2023-02-13T22:40:54.200Z,103.67
2023-02-13T22:46:56.513Z,107.33
2023-02-13T22:52:59.751Z,109.25
2023-02-13T22:59:01.974Z,101.00
2023-02-13T23:05:04.096Z,105.33
2023-02-13T23:11:27.436Z,99.67
2023-02-13T23:17:48.803Z,104.67
2023-02-13T23:23:51.464Z,105.67
2023-02-13T23:29:54.105Z,102.00
2023-02-13T23:35:56.838Z,103.67
2023-02-13T23:41:59.087Z,101.67
2023-02-13T23:48:01.261Z,104.67
2023-02-13T23:54:04.880Z,106.33
